General Aviation Weather

Text Reports

Enter one or more of the following location identifiers separated by a space:

Zip Code, Four-Character ICAO or Three-Character IATA airport codes.

METAR - Aviation Routine Weather Report
KMDZ - Medford, Wisconsin
Updated at 3:35 PM GMT on December 28, 2014 (9:35 AM CST):
METAR KMDZ 281535Z AUTO 00000KT 5SM -SN OVC036 M12/M13 A3008 RMK AO2 T11171132
TAF - Terminal Area Forecast
KMDZ - Medford, Wisconsin
Updated at 3:35 PM GMT on December 28, 2014 (9:35 AM CST):
No TAF is currently available for this location.
Decoded:
No decoded TAF is available.
PIREP - Pilot Weather Report
KMDZ - Medford, Wisconsin
Updated at 3:35 PM GMT on December 28, 2014 (9:35 AM CST):
No PIREP is currently available for this location.
AIRMET - Airmens Meteorological Information
KMDZ - Medford, Wisconsin
Updated at 3:35 PM GMT on December 28, 2014 (9:35 AM CST):
No AIRMET is currently available for this location.
SIGMET - Significant Meteorological Information
KMDZ - Medford, Wisconsin
Updated at 3:35 PM GMT on December 28, 2014 (9:35 AM CST):
No SIGMET is currently available for this location.
NOTAM - Notice to Airmen
KMDZ - Medford, Wisconsin
Updated at 3:35 PM GMT on December 28, 2014 (9:35 AM CST):
No NOTAM is currently available for this location.
Forecast Area
KMDZ - Medford, Wisconsin
Updated at 3:35 PM GMT on December 28, 2014 (9:35 AM CST):
No NOTAM is currently available for this location.
Aviation Weather Maps